sensor_id;sensor_type;location;lat;lon;timestamp;P1;durP1;ratioP1;P2;durP2;ratioP2
77495;SDS011;66600;48.378;9.948;2023-03-24T00:01:52;6.63;;;4.43;;
77495;SDS011;66600;48.378;9.948;2023-03-24T00:04:18;6.20;;;4.63;;
77495;SDS011;66600;48.378;9.948;2023-03-24T00:06:44;6.28;;;4.60;;
77495;SDS011;66600;48.378;9.948;2023-03-24T00:09:09;5.90;;;4.50;;
77495;SDS011;66600;48.378;9.948;2023-03-24T00:11:35;6.45;;;4.55;;
77495;SDS011;66600;48.378;9.948;2023-03-24T00:14:01;8.38;;;4.88;;
77495;SDS011;66600;48.378;9.948;2023-03-24T00:16:27;7.60;;;4.88;;
77495;SDS011;66600;48.378;9.948;2023-03-24T00:18:53;7.47;;;4.63;;
77495;SDS011;66600;48.378;9.948;2023-03-24T00:21:19;6.93;;;4.50;;
77495;SDS011;66600;48.378;9.948;2023-03-24T00:23:46;8.07;;;4.43;;
77495;SDS011;66600;48.378;9.948;2023-03-24T00:26:13;7.05;;;4.40;;
77495;SDS011;66600;48.378;9.948;2023-03-24T00:28:40;5.35;;;4.30;;
77495;SDS011;66600;48.378;9.948;2023-03-24T00:31:07;6.70;;;4.20;;
77495;SDS011;66600;48.378;9.948;2023-03-24T00:33:33;7.15;;;4.72;;
77495;SDS011;66600;48.378;9.948;2023-03-24T00:36:04;7.35;;;4.20;;
77495;SDS011;66600;48.378;9.948;2023-03-24T00:38:32;6.90;;;4.07;;
77495;SDS011;66600;48.378;9.948;2023-03-24T00:40:58;7.82;;;4.82;;
77495;SDS011;66600;48.378;9.948;2023-03-24T00:43:24;5.97;;;4.60;;
77495;SDS011;66600;48.378;9.948;2023-03-24T00:45:56;7.88;;;4.95;;
77495;SDS011;66600;48.378;9.948;2023-03-24T00:48:25;6.05;;;4.30;;
77495;SDS011;66600;48.378;9.948;2023-03-24T00:50:51;7.40;;;4.97;;
77495;SDS011;66600;48.378;9.948;2023-03-24T00:53:16;8.40;;;5.28;;
77495;SDS011;66600;48.378;9.948;2023-03-24T00:55:43;8.35;;;4.82;;
77495;SDS011;66600;48.378;9.948;2023-03-24T00:58:15;6.28;;;4.50;;
77495;SDS011;66600;48.378;9.948;2023-03-24T01:00:47;7.47;;;5.18;;
77495;SDS011;66600;48.378;9.948;2023-03-24T01:03:14;6.90;;;4.43;;
77495;SDS011;66600;48.378;9.948;2023-03-24T01:05:40;7.93;;;5.03;;
77495;SDS011;66600;48.378;9.948;2023-03-24T01:08:06;6.90;;;4.88;;
77495;SDS011;66600;48.378;9.948;2023-03-24T01:10:33;14.35;;;4.82;;
77495;SDS011;66600;48.378;9.948;2023-03-24T01:13:06;7.82;;;5.00;;
77495;SDS011;66600;48.378;9.948;2023-03-24T01:15:32;7.57;;;5.10;;
77495;SDS011;66600;48.378;9.948;2023-03-24T01:18:00;9.05;;;5.60;;
77495;SDS011;66600;48.378;9.948;2023-03-24T01:20:27;8.05;;;5.30;;
77495;SDS011;66600;48.378;9.948;2023-03-24T01:22:57;7.70;;;4.97;;
77495;SDS011;66600;48.378;9.948;2023-03-24T01:25:23;9.45;;;5.80;;
77495;SDS011;66600;48.378;9.948;2023-03-24T01:27:50;7.50;;;5.63;;
77495;SDS011;66600;48.378;9.948;2023-03-24T01:30:17;10.10;;;5.65;;
77495;SDS011;66600;48.378;9.948;2023-03-24T01:32:45;8.60;;;6.10;;
77495;SDS011;66600;48.378;9.948;2023-03-24T01:35:11;9.25;;;6.55;;
77495;SDS011;66600;48.378;9.948;2023-03-24T01:37:37;10.18;;;6.80;;
77495;SDS011;66600;48.378;9.948;2023-03-24T01:40:03;8.45;;;6.22;;
77495;SDS011;66600;48.378;9.948;2023-03-24T01:42:33;8.75;;;6.25;;
77495;SDS011;66600;48.378;9.948;2023-03-24T01:45:32;11.48;;;6.60;;
77495;SDS011;66600;48.378;9.948;2023-03-24T01:47:57;11.60;;;7.40;;
77495;SDS011;66600;48.378;9.948;2023-03-24T01:50:23;12.25;;;7.28;;
77495;SDS011;66600;48.378;9.948;2023-03-24T01:52:48;10.88;;;7.15;;
77495;SDS011;66600;48.378;9.948;2023-03-24T01:55:14;10.73;;;7.13;;
77495;SDS011;66600;48.378;9.948;2023-03-24T01:57:45;11.25;;;7.20;;
77495;SDS011;66600;48.378;9.948;2023-03-24T02:00:15;11.60;;;7.00;;
77495;SDS011;66600;48.378;9.948;2023-03-24T02:05:28;10.38;;;6.70;;
77495;SDS011;66600;48.378;9.948;2023-03-24T02:10:32;9.27;;;6.70;;
77495;SDS011;66600;48.378;9.948;2023-03-24T02:12:59;8.17;;;7.00;;
77495;SDS011;66600;48.378;9.948;2023-03-24T02:15:25;9.68;;;6.30;;
77495;SDS011;66600;48.378;9.948;2023-03-24T02:18:13;9.32;;;6.55;;
77495;SDS011;66600;48.378;9.948;2023-03-24T02:26:51;9.70;;;6.05;;
77495;SDS011;66600;48.378;9.948;2023-03-24T02:32:23;9.93;;;6.28;;
77495;SDS011;66600;48.378;9.948;2023-03-24T02:49:06;8.98;;;6.00;;
77495;SDS011;66600;48.378;9.948;2023-03-24T02:51:39;10.45;;;5.80;;
77495;SDS011;66600;48.378;9.948;2023-03-24T02:54:15;8.77;;;5.47;;
77495;SDS011;66600;48.378;9.948;2023-03-24T02:57:05;8.10;;;5.40;;
77495;SDS011;66600;48.378;9.948;2023-03-24T02:59:47;8.25;;;5.18;;
77495;SDS011;66600;48.378;9.948;2023-03-24T03:02:19;6.80;;;5.05;;
77495;SDS011;66600;48.378;9.948;2023-03-24T03:04:59;10.00;;;5.50;;
77495;SDS011;66600;48.378;9.948;2023-03-24T03:07:29;8.00;;;5.78;;
77495;SDS011;66600;48.378;9.948;2023-03-24T03:10:03;8.32;;;5.90;;
77495;SDS011;66600;48.378;9.948;2023-03-24T03:12:35;9.18;;;5.90;;
77495;SDS011;66600;48.378;9.948;2023-03-24T03:15:11;10.13;;;5.97;;
77495;SDS011;66600;48.378;9.948;2023-03-24T03:17:41;8.07;;;5.45;;
77495;SDS011;66600;48.378;9.948;2023-03-24T03:20:17;8.68;;;5.40;;
77495;SDS011;66600;48.378;9.948;2023-03-24T03:22:49;9.23;;;5.35;;
77495;SDS011;66600;48.378;9.948;2023-03-24T03:25:19;9.00;;;5.47;;
77495;SDS011;66600;48.378;9.948;2023-03-24T03:27:48;11.45;;;5.70;;
77495;SDS011;66600;48.378;9.948;2023-03-24T03:30:21;8.63;;;5.57;;
77495;SDS011;66600;48.378;9.948;2023-03-24T03:33:14;8.25;;;5.40;;
77495;SDS011;66600;48.378;9.948;2023-03-24T03:35:50;8.38;;;5.80;;
77495;SDS011;66600;48.378;9.948;2023-03-24T03:38:39;8.40;;;5.45;;
77495;SDS011;66600;48.378;9.948;2023-03-24T03:41:10;9.68;;;5.75;;
77495;SDS011;66600;48.378;9.948;2023-03-24T03:43:36;7.07;;;5.28;;
77495;SDS011;66600;48.378;9.948;2023-03-24T03:46:02;8.27;;;5.45;;
77495;SDS011;66600;48.378;9.948;2023-03-24T03:48:30;9.07;;;5.32;;
77495;SDS011;66600;48.378;9.948;2023-03-24T03:50:56;8.60;;;6.07;;
77495;SDS011;66600;48.378;9.948;2023-03-24T03:53:23;8.10;;;5.68;;
77495;SDS011;66600;48.378;9.948;2023-03-24T03:55:54;7.90;;;5.95;;
77495;SDS011;66600;48.378;9.948;2023-03-24T03:58:20;8.18;;;5.90;;
77495;SDS011;66600;48.378;9.948;2023-03-24T04:00:47;13.10;;;6.70;;
77495;SDS011;66600;48.378;9.948;2023-03-24T04:03:19;9.70;;;6.20;;
77495;SDS011;66600;48.378;9.948;2023-03-24T04:11:30;8.15;;;5.95;;
77495;SDS011;66600;48.378;9.948;2023-03-24T04:22:36;9.23;;;6.80;;
77495;SDS011;66600;48.378;9.948;2023-03-24T04:25:11;8.95;;;6.28;;
77495;SDS011;66600;48.378;9.948;2023-03-24T04:27:42;7.82;;;6.30;;
77495;SDS011;66600;48.378;9.948;2023-03-24T04:30:17;9.77;;;6.35;;
77495;SDS011;66600;48.378;9.948;2023-03-24T04:32:54;9.88;;;5.88;;
77495;SDS011;66600;48.378;9.948;2023-03-24T04:36:15;10.73;;;6.28;;
77495;SDS011;66600;48.378;9.948;2023-03-24T04:38:55;9.98;;;6.22;;
77495;SDS011;66600;48.378;9.948;2023-03-24T04:41:25;8.70;;;5.90;;
77495;SDS011;66600;48.378;9.948;2023-03-24T04:43:53;9.88;;;6.57;;
77495;SDS011;66600;48.378;9.948;2023-03-24T04:46:21;9.45;;;6.10;;
77495;SDS011;66600;48.378;9.948;2023-03-24T04:48:48;10.35;;;6.25;;
77495;SDS011;66600;48.378;9.948;2023-03-24T04:51:14;10.02;;;6.55;;
77495;SDS011;66600;48.378;9.948;2023-03-24T04:53:42;8.80;;;6.05;;
77495;SDS011;66600;48.378;9.948;2023-03-24T04:58:42;9.10;;;6.13;;
77495;SDS011;66600;48.378;9.948;2023-03-24T05:01:07;9.00;;;6.50;;
77495;SDS011;66600;48.378;9.948;2023-03-24T05:03:33;10.32;;;6.40;;
77495;SDS011;66600;48.378;9.948;2023-03-24T05:06:02;11.10;;;6.72;;
77495;SDS011;66600;48.378;9.948;2023-03-24T05:08:29;9.30;;;6.22;;
77495;SDS011;66600;48.378;9.948;2023-03-24T05:10:55;8.55;;;6.10;;
77495;SDS011;66600;48.378;9.948;2023-03-24T05:13:20;9.45;;;5.85;;
77495;SDS011;66600;48.378;9.948;2023-03-24T05:15:46;7.82;;;5.68;;
77495;SDS011;66600;48.378;9.948;2023-03-24T05:18:11;8.30;;;5.70;;
77495;SDS011;66600;48.378;9.948;2023-03-24T05:20:36;9.60;;;6.10;;
77495;SDS011;66600;48.378;9.948;2023-03-24T05:23:02;8.52;;;6.03;;
77495;SDS011;66600;48.378;9.948;2023-03-24T05:25:27;8.77;;;6.00;;
77495;SDS011;66600;48.378;9.948;2023-03-24T05:27:53;10.05;;;6.35;;
77495;SDS011;66600;48.378;9.948;2023-03-24T05:30:18;8.02;;;6.00;;
77495;SDS011;66600;48.378;9.948;2023-03-24T05:32:44;9.45;;;6.75;;
77495;SDS011;66600;48.378;9.948;2023-03-24T05:35:10;9.27;;;6.57;;
77495;SDS011;66600;48.378;9.948;2023-03-24T05:37:35;9.35;;;6.40;;
77495;SDS011;66600;48.378;9.948;2023-03-24T05:40:00;10.45;;;6.63;;
77495;SDS011;66600;48.378;9.948;2023-03-24T05:42:25;10.25;;;6.53;;
77495;SDS011;66600;48.378;9.948;2023-03-24T05:44:51;10.45;;;6.82;;
77495;SDS011;66600;48.378;9.948;2023-03-24T05:47:16;11.50;;;6.70;;
77495;SDS011;66600;48.378;9.948;2023-03-24T05:49:44;9.45;;;6.90;;
77495;SDS011;66600;48.378;9.948;2023-03-24T05:52:10;10.23;;;6.60;;
77495;SDS011;66600;48.378;9.948;2023-03-24T05:54:36;8.75;;;6.72;;
77495;SDS011;66600;48.378;9.948;2023-03-24T05:57:03;9.65;;;7.13;;
77495;SDS011;66600;48.378;9.948;2023-03-24T05:59:31;9.70;;;6.80;;
77495;SDS011;66600;48.378;9.948;2023-03-24T06:01:57;9.65;;;6.75;;
77495;SDS011;66600;48.378;9.948;2023-03-24T06:04:22;12.32;;;7.50;;
77495;SDS011;66600;48.378;9.948;2023-03-24T06:06:48;10.85;;;7.40;;
77495;SDS011;66600;48.378;9.948;2023-03-24T06:09:14;10.15;;;7.43;;
77495;SDS011;66600;48.378;9.948;2023-03-24T06:11:43;10.35;;;7.00;;
77495;SDS011;66600;48.378;9.948;2023-03-24T06:14:09;13.73;;;7.88;;
77495;SDS011;66600;48.378;9.948;2023-03-24T06:16:34;12.40;;;7.57;;
77495;SDS011;66600;48.378;9.948;2023-03-24T06:19:03;11.13;;;7.10;;
77495;SDS011;66600;48.378;9.948;2023-03-24T06:21:30;10.85;;;7.05;;
77495;SDS011;66600;48.378;9.948;2023-03-24T06:23:56;10.50;;;7.00;;
77495;SDS011;66600;48.378;9.948;2023-03-24T06:26:22;12.32;;;7.50;;
77495;SDS011;66600;48.378;9.948;2023-03-24T06:28:47;11.07;;;7.35;;
77495;SDS011;66600;48.378;9.948;2023-03-24T06:31:15;9.95;;;6.45;;
77495;SDS011;66600;48.378;9.948;2023-03-24T06:33:44;10.37;;;5.97;;
77495;SDS011;66600;48.378;9.948;2023-03-24T06:36:09;7.80;;;5.07;;
77495;SDS011;66600;48.378;9.948;2023-03-24T06:38:36;6.13;;;4.20;;
77495;SDS011;66600;48.378;9.948;2023-03-24T06:41:02;7.45;;;4.43;;
77495;SDS011;66600;48.378;9.948;2023-03-24T06:43:28;7.28;;;4.38;;
77495;SDS011;66600;48.378;9.948;2023-03-24T06:45:54;5.95;;;4.15;;
77495;SDS011;66600;48.378;9.948;2023-03-24T06:48:19;6.82;;;4.68;;
77495;SDS011;66600;48.378;9.948;2023-03-24T06:50:44;7.18;;;4.90;;
77495;SDS011;66600;48.378;9.948;2023-03-24T06:53:10;6.80;;;4.40;;
77495;SDS011;66600;48.378;9.948;2023-03-24T06:55:35;7.28;;;4.70;;
77495;SDS011;66600;48.378;9.948;2023-03-24T06:58:00;6.25;;;4.28;;
77495;SDS011;66600;48.378;9.948;2023-03-24T07:00:26;6.10;;;4.60;;
77495;SDS011;66600;48.378;9.948;2023-03-24T07:02:53;9.00;;;4.55;;
77495;SDS011;66600;48.378;9.948;2023-03-24T07:05:18;6.68;;;4.65;;
77495;SDS011;66600;48.378;9.948;2023-03-24T07:07:44;7.45;;;3.97;;
77495;SDS011;66600;48.378;9.948;2023-03-24T07:10:10;7.43;;;4.10;;
77495;SDS011;66600;48.378;9.948;2023-03-24T07:12:37;6.22;;;4.20;;
77495;SDS011;66600;48.378;9.948;2023-03-24T07:15:02;7.07;;;4.60;;
77495;SDS011;66600;48.378;9.948;2023-03-24T07:17:28;8.57;;;4.68;;
77495;SDS011;66600;48.378;9.948;2023-03-24T07:19:53;6.80;;;4.22;;
77495;SDS011;66600;48.378;9.948;2023-03-24T07:22:19;6.38;;;4.63;;
77495;SDS011;66600;48.378;9.948;2023-03-24T07:24:44;6.30;;;4.57;;
77495;SDS011;66600;48.378;9.948;2023-03-24T07:27:10;6.93;;;4.40;;
77495;SDS011;66600;48.378;9.948;2023-03-24T07:29:35;5.95;;;4.63;;
77495;SDS011;66600;48.378;9.948;2023-03-24T07:32:01;6.65;;;4.88;;
77495;SDS011;66600;48.378;9.948;2023-03-24T07:34:27;6.72;;;4.63;;
77495;SDS011;66600;48.378;9.948;2023-03-24T07:36:53;7.07;;;4.68;;
77495;SDS011;66600;48.378;9.948;2023-03-24T07:39:18;6.68;;;4.30;;
77495;SDS011;66600;48.378;9.948;2023-03-24T07:41:44;6.13;;;4.55;;
77495;SDS011;66600;48.378;9.948;2023-03-24T07:44:10;6.88;;;4.38;;
77495;SDS011;66600;48.378;9.948;2023-03-24T07:46:36;8.13;;;5.00;;
77495;SDS011;66600;48.378;9.948;2023-03-24T07:49:01;7.65;;;4.65;;
77495;SDS011;66600;48.378;9.948;2023-03-24T07:51:27;7.90;;;4.63;;
77495;SDS011;66600;48.378;9.948;2023-03-24T07:53:53;7.50;;;5.00;;
77495;SDS011;66600;48.378;9.948;2023-03-24T07:56:18;8.02;;;5.28;;
77495;SDS011;66600;48.378;9.948;2023-03-24T07:58:44;8.27;;;4.93;;
77495;SDS011;66600;48.378;9.948;2023-03-24T08:01:10;8.88;;;5.00;;
77495;SDS011;66600;48.378;9.948;2023-03-24T08:03:35;7.75;;;5.38;;
77495;SDS011;66600;48.378;9.948;2023-03-24T08:06:02;9.60;;;4.75;;
77495;SDS011;66600;48.378;9.948;2023-03-24T08:08:28;9.18;;;5.40;;
77495;SDS011;66600;48.378;9.948;2023-03-24T08:10:54;8.50;;;5.32;;
77495;SDS011;66600;48.378;9.948;2023-03-24T08:13:19;7.80;;;5.43;;
77495;SDS011;66600;48.378;9.948;2023-03-24T08:15:44;9.43;;;5.85;;
77495;SDS011;66600;48.378;9.948;2023-03-24T08:18:10;8.68;;;5.43;;
77495;SDS011;66600;48.378;9.948;2023-03-24T08:20:36;8.77;;;5.90;;
77495;SDS011;66600;48.378;9.948;2023-03-24T08:23:02;7.88;;;5.55;;
77495;SDS011;66600;48.378;9.948;2023-03-24T08:25:28;9.98;;;5.95;;
77495;SDS011;66600;48.378;9.948;2023-03-24T08:27:54;7.90;;;5.32;;
77495;SDS011;66600;48.378;9.948;2023-03-24T08:30:20;8.38;;;5.13;;
77495;SDS011;66600;48.378;9.948;2023-03-24T08:32:48;9.23;;;5.50;;
77495;SDS011;66600;48.378;9.948;2023-03-24T08:35:20;8.60;;;5.80;;
77495;SDS011;66600;48.378;9.948;2023-03-24T08:37:48;8.07;;;5.57;;
77495;SDS011;66600;48.378;9.948;2023-03-24T08:40:15;9.15;;;5.55;;
77495;SDS011;66600;48.378;9.948;2023-03-24T08:42:48;9.23;;;5.53;;
77495;SDS011;66600;48.378;9.948;2023-03-24T08:45:16;8.60;;;6.15;;
77495;SDS011;66600;48.378;9.948;2023-03-24T08:47:45;10.27;;;6.30;;
77495;SDS011;66600;48.378;9.948;2023-03-24T08:50:11;7.75;;;5.75;;
77495;SDS011;66600;48.378;9.948;2023-03-24T08:52:36;11.13;;;7.07;;
77495;SDS011;66600;48.378;9.948;2023-03-24T08:55:02;8.30;;;5.70;;
77495;SDS011;66600;48.378;9.948;2023-03-24T08:57:29;9.93;;;5.82;;
77495;SDS011;66600;48.378;9.948;2023-03-24T08:59:55;9.57;;;6.07;;
77495;SDS011;66600;48.378;9.948;2023-03-24T09:02:21;9.23;;;6.45;;
77495;SDS011;66600;48.378;9.948;2023-03-24T09:04:46;10.73;;;6.78;;
77495;SDS011;66600;48.378;9.948;2023-03-24T09:07:13;8.68;;;5.55;;
77495;SDS011;66600;48.378;9.948;2023-03-24T09:09:40;7.63;;;5.85;;
77495;SDS011;66600;48.378;9.948;2023-03-24T09:12:05;9.13;;;5.30;;
77495;SDS011;66600;48.378;9.948;2023-03-24T09:14:31;8.35;;;5.60;;
77495;SDS011;66600;48.378;9.948;2023-03-24T09:16:56;7.72;;;5.22;;
77495;SDS011;66600;48.378;9.948;2023-03-24T09:19:21;6.43;;;4.50;;
77495;SDS011;66600;48.378;9.948;2023-03-24T09:21:47;9.45;;;4.90;;
77495;SDS011;66600;48.378;9.948;2023-03-24T09:24:13;7.55;;;4.88;;
77495;SDS011;66600;48.378;9.948;2023-03-24T09:26:38;7.35;;;4.70;;
77495;SDS011;66600;48.378;9.948;2023-03-24T09:29:04;6.72;;;4.18;;
77495;SDS011;66600;48.378;9.948;2023-03-24T09:31:29;8.85;;;3.85;;
77495;SDS011;66600;48.378;9.948;2023-03-24T09:33:55;5.18;;;3.25;;
77495;SDS011;66600;48.378;9.948;2023-03-24T09:36:20;7.65;;;4.40;;
77495;SDS011;66600;48.378;9.948;2023-03-24T09:38:46;6.28;;;4.20;;
77495;SDS011;66600;48.378;9.948;2023-03-24T09:41:25;7.93;;;4.97;;
77495;SDS011;66600;48.378;9.948;2023-03-24T09:43:54;7.85;;;4.40;;
77495;SDS011;66600;48.378;9.948;2023-03-24T09:46:38;6.28;;;4.70;;
77495;SDS011;66600;48.378;9.948;2023-03-24T09:49:07;6.57;;;4.13;;
77495;SDS011;66600;48.378;9.948;2023-03-24T09:51:40;7.53;;;4.40;;
77495;SDS011;66600;48.378;9.948;2023-03-24T09:54:10;5.93;;;3.88;;
77495;SDS011;66600;48.378;9.948;2023-03-24T09:56:38;8.40;;;4.18;;
77495;SDS011;66600;48.378;9.948;2023-03-24T09:59:15;7.45;;;4.43;;
77495;SDS011;66600;48.378;9.948;2023-03-24T10:01:42;5.82;;;3.88;;
77495;SDS011;66600;48.378;9.948;2023-03-24T10:04:14;6.47;;;4.00;;
77495;SDS011;66600;48.378;9.948;2023-03-24T10:06:42;5.70;;;3.58;;
77495;SDS011;66600;48.378;9.948;2023-03-24T10:22:51;6.93;;;4.00;;
77495;SDS011;66600;48.378;9.948;2023-03-24T10:25:42;7.60;;;4.50;;
77495;SDS011;66600;48.378;9.948;2023-03-24T10:28:24;6.03;;;4.38;;
77495;SDS011;66600;48.378;9.948;2023-03-24T10:30:56;6.72;;;4.28;;
77495;SDS011;66600;48.378;9.948;2023-03-24T10:33:26;6.57;;;4.63;;
77495;SDS011;66600;48.378;9.948;2023-03-24T10:38:32;9.73;;;4.43;;
77495;SDS011;66600;48.378;9.948;2023-03-24T10:40:57;7.22;;;4.47;;
77495;SDS011;66600;48.378;9.948;2023-03-24T10:43:24;5.78;;;4.20;;
77495;SDS011;66600;48.378;9.948;2023-03-24T10:45:52;5.78;;;3.90;;
77495;SDS011;66600;48.378;9.948;2023-03-24T10:51:03;6.00;;;4.15;;
77495;SDS011;66600;48.378;9.948;2023-03-24T10:53:30;5.05;;;3.22;;
77495;SDS011;66600;48.378;9.948;2023-03-24T10:55:57;5.57;;;3.50;;
77495;SDS011;66600;48.378;9.948;2023-03-24T11:00:47;4.40;;;3.30;;
77495;SDS011;66600;48.378;9.948;2023-03-24T11:03:15;4.60;;;3.08;;
77495;SDS011;66600;48.378;9.948;2023-03-24T11:05:45;4.20;;;2.97;;
77495;SDS011;66600;48.378;9.948;2023-03-24T11:10:50;4.22;;;3.25;;
77495;SDS011;66600;48.378;9.948;2023-03-24T11:13:17;4.38;;;2.80;;
77495;SDS011;66600;48.378;9.948;2023-03-24T11:15:55;3.78;;;2.90;;
77495;SDS011;66600;48.378;9.948;2023-03-24T11:18:29;4.22;;;2.83;;
77495;SDS011;66600;48.378;9.948;2023-03-24T11:21:04;4.70;;;2.70;;
77495;SDS011;66600;48.378;9.948;2023-03-24T11:23:32;4.68;;;2.75;;
77495;SDS011;66600;48.378;9.948;2023-03-24T11:26:13;6.53;;;2.73;;
77495;SDS011;66600;48.378;9.948;2023-03-24T11:28:41;4.38;;;2.95;;
77495;SDS011;66600;48.378;9.948;2023-03-24T11:31:10;3.58;;;2.45;;
77495;SDS011;66600;48.378;9.948;2023-03-24T11:33:49;5.78;;;2.75;;
77495;SDS011;66600;48.378;9.948;2023-03-24T11:39:00;4.95;;;2.42;;
77495;SDS011;66600;48.378;9.948;2023-03-24T11:41:28;3.42;;;2.55;;
77495;SDS011;66600;48.378;9.948;2023-03-24T11:46:54;3.20;;;1.90;;
77495;SDS011;66600;48.378;9.948;2023-03-24T11:49:24;3.15;;;1.63;;
77495;SDS011;66600;48.378;9.948;2023-03-24T11:51:53;2.92;;;1.83;;
77495;SDS011;66600;48.378;9.948;2023-03-24T11:54:20;4.82;;;1.90;;
77495;SDS011;66600;48.378;9.948;2023-03-24T12:12:46;3.03;;;1.85;;
77495;SDS011;66600;48.378;9.948;2023-03-24T12:16:20;3.28;;;1.70;;
77495;SDS011;66600;48.378;9.948;2023-03-24T12:24:19;2.08;;;1.48;;
77495;SDS011;66600;48.378;9.948;2023-03-24T12:26:57;1.73;;;1.35;;
77495;SDS011;66600;48.378;9.948;2023-03-24T12:29:33;3.10;;;1.77;;
77495;SDS011;66600;48.378;9.948;2023-03-24T12:32:14;5.55;;;1.50;;
77495;SDS011;66600;48.378;9.948;2023-03-24T12:34:55;2.38;;;1.30;;
77495;SDS011;66600;48.378;9.948;2023-03-24T12:37:38;2.28;;;1.52;;
77495;SDS011;66600;48.378;9.948;2023-03-24T12:41:07;2.83;;;1.27;;
77495;SDS011;66600;48.378;9.948;2023-03-24T12:43:18;3.78;;;1.67;;
77495;SDS011;66600;48.378;9.948;2023-03-24T12:45:48;1.83;;;1.30;;
77495;SDS011;66600;48.378;9.948;2023-03-24T12:48:23;1.98;;;1.33;;
77495;SDS011;66600;48.378;9.948;2023-03-24T12:51:08;2.78;;;1.42;;
77495;SDS011;66600;48.378;9.948;2023-03-24T12:56:57;2.88;;;1.40;;
77495;SDS011;66600;48.378;9.948;2023-03-24T12:59:32;2.60;;;1.50;;
77495;SDS011;66600;48.378;9.948;2023-03-24T13:04:51;1.95;;;1.23;;
77495;SDS011;66600;48.378;9.948;2023-03-24T13:07:22;3.17;;;1.20;;
77495;SDS011;66600;48.378;9.948;2023-03-24T13:09:56;1.55;;;1.15;;
77495;SDS011;66600;48.378;9.948;2023-03-24T13:18:04;1.67;;;1.20;;
77495;SDS011;66600;48.378;9.948;2023-03-24T13:20:34;2.42;;;1.42;;
77495;SDS011;66600;48.378;9.948;2023-03-24T13:23:49;2.03;;;1.40;;
77495;SDS011;66600;48.378;9.948;2023-03-24T13:28:31;2.53;;;1.30;;
77495;SDS011;66600;48.378;9.948;2023-03-24T13:31:03;3.28;;;1.45;;
77495;SDS011;66600;48.378;9.948;2023-03-24T13:33:31;1.90;;;1.27;;
77495;SDS011;66600;48.378;9.948;2023-03-24T13:36:13;4.32;;;1.80;;
77495;SDS011;66600;48.378;9.948;2023-03-24T13:39:08;2.40;;;1.50;;
77495;SDS011;66600;48.378;9.948;2023-03-24T13:41:39;2.70;;;1.40;;
77495;SDS011;66600;48.378;9.948;2023-03-24T13:44:14;1.77;;;1.30;;
77495;SDS011;66600;48.378;9.948;2023-03-24T13:46:40;2.38;;;1.20;;
77495;SDS011;66600;48.378;9.948;2023-03-24T13:49:09;2.92;;;1.30;;
77495;SDS011;66600;48.378;9.948;2023-03-24T13:51:39;2.40;;;1.40;;
77495;SDS011;66600;48.378;9.948;2023-03-24T13:56:51;2.58;;;1.60;;
77495;SDS011;66600;48.378;9.948;2023-03-24T14:02:21;1.58;;;1.15;;
77495;SDS011;66600;48.378;9.948;2023-03-24T14:05:10;1.67;;;0.98;;
77495;SDS011;66600;48.378;9.948;2023-03-24T14:10:38;1.63;;;1.10;;
77495;SDS011;66600;48.378;9.948;2023-03-24T14:15:43;1.33;;;1.00;;
77495;SDS011;66600;48.378;9.948;2023-03-24T14:23:33;1.52;;;0.98;;
77495;SDS011;66600;48.378;9.948;2023-03-24T14:28:48;2.25;;;1.02;;
77495;SDS011;66600;48.378;9.948;2023-03-24T14:33:42;1.65;;;1.10;;
77495;SDS011;66600;48.378;9.948;2023-03-24T14:36:31;1.30;;;1.02;;
77495;SDS011;66600;48.378;9.948;2023-03-24T14:41:50;2.53;;;1.30;;
77495;SDS011;66600;48.378;9.948;2023-03-24T14:47:09;4.43;;;1.40;;
77495;SDS011;66600;48.378;9.948;2023-03-24T14:52:12;2.10;;;1.10;;
77495;SDS011;66600;48.378;9.948;2023-03-24T14:54:53;2.72;;;1.20;;
77495;SDS011;66600;48.378;9.948;2023-03-24T15:00:05;2.35;;;1.20;;
77495;SDS011;66600;48.378;9.948;2023-03-24T15:02:45;1.98;;;1.23;;
77495;SDS011;66600;48.378;9.948;2023-03-24T15:07:57;2.10;;;1.10;;
77495;SDS011;66600;48.378;9.948;2023-03-24T15:10:30;2.70;;;1.13;;
77495;SDS011;66600;48.378;9.948;2023-03-24T15:13:02;1.55;;;1.00;;
77495;SDS011;66600;48.378;9.948;2023-03-24T15:15:27;2.63;;;1.10;;
77495;SDS011;66600;48.378;9.948;2023-03-24T15:17:53;2.60;;;1.23;;
77495;SDS011;66600;48.378;9.948;2023-03-24T15:20:22;2.28;;;1.17;;
77495;SDS011;66600;48.378;9.948;2023-03-24T15:22:50;2.28;;;1.05;;
77495;SDS011;66600;48.378;9.948;2023-03-24T15:25:19;3.00;;;1.50;;
77495;SDS011;66600;48.378;9.948;2023-03-24T15:27:52;2.22;;;1.15;;
77495;SDS011;66600;48.378;9.948;2023-03-24T15:30:19;2.08;;;1.10;;
77495;SDS011;66600;48.378;9.948;2023-03-24T15:32:45;3.30;;;1.38;;
77495;SDS011;66600;48.378;9.948;2023-03-24T15:35:13;2.85;;;1.52;;
77495;SDS011;66600;48.378;9.948;2023-03-24T15:42:50;2.58;;;1.40;;
77495;SDS011;66600;48.378;9.948;2023-03-24T15:45:24;2.50;;;1.40;;
77495;SDS011;66600;48.378;9.948;2023-03-24T15:47:52;3.50;;;1.60;;
77495;SDS011;66600;48.378;9.948;2023-03-24T15:53:00;3.53;;;1.30;;
77495;SDS011;66600;48.378;9.948;2023-03-24T15:55:29;2.13;;;1.23;;
77495;SDS011;66600;48.378;9.948;2023-03-24T15:57:58;2.65;;;1.30;;
77495;SDS011;66600;48.378;9.948;2023-03-24T16:00:36;2.45;;;1.02;;
77495;SDS011;66600;48.378;9.948;2023-03-24T16:03:03;3.05;;;1.45;;
77495;SDS011;66600;48.378;9.948;2023-03-24T16:05:30;1.48;;;1.13;;
77495;SDS011;66600;48.378;9.948;2023-03-24T16:07:58;1.80;;;0.98;;
77495;SDS011;66600;48.378;9.948;2023-03-24T16:10:25;2.45;;;1.17;;
77495;SDS011;66600;48.378;9.948;2023-03-24T16:12:57;1.98;;;1.27;;
77495;SDS011;66600;48.378;9.948;2023-03-24T16:15:28;3.08;;;1.10;;
77495;SDS011;66600;48.378;9.948;2023-03-24T16:17:53;3.42;;;1.20;;
77495;SDS011;66600;48.378;9.948;2023-03-24T16:20:19;2.33;;;1.20;;
77495;SDS011;66600;48.378;9.948;2023-03-24T16:22:45;2.10;;;1.20;;
77495;SDS011;66600;48.378;9.948;2023-03-24T16:25:11;2.00;;;1.27;;
77495;SDS011;66600;48.378;9.948;2023-03-24T16:27:38;2.58;;;1.20;;
77495;SDS011;66600;48.378;9.948;2023-03-24T16:30:16;3.17;;;1.50;;
77495;SDS011;66600;48.378;9.948;2023-03-24T16:32:45;2.47;;;1.20;;
77495;SDS011;66600;48.378;9.948;2023-03-24T16:35:10;2.53;;;1.58;;
77495;SDS011;66600;48.378;9.948;2023-03-24T16:37:36;1.88;;;1.15;;
77495;SDS011;66600;48.378;9.948;2023-03-24T16:40:01;2.00;;;1.42;;
77495;SDS011;66600;48.378;9.948;2023-03-24T16:42:27;2.63;;;1.27;;
77495;SDS011;66600;48.378;9.948;2023-03-24T16:44:52;2.58;;;1.30;;
77495;SDS011;66600;48.378;9.948;2023-03-24T16:47:18;1.63;;;1.05;;
77495;SDS011;66600;48.378;9.948;2023-03-24T16:49:43;2.65;;;1.20;;
77495;SDS011;66600;48.378;9.948;2023-03-24T16:52:10;3.50;;;1.20;;
77495;SDS011;66600;48.378;9.948;2023-03-24T16:54:37;3.05;;;1.45;;
77495;SDS011;66600;48.378;9.948;2023-03-24T16:57:02;2.20;;;1.50;;
77495;SDS011;66600;48.378;9.948;2023-03-24T16:59:27;2.33;;;1.30;;
77495;SDS011;66600;48.378;9.948;2023-03-24T17:01:53;2.55;;;1.33;;
77495;SDS011;66600;48.378;9.948;2023-03-24T17:04:20;2.00;;;1.10;;
77495;SDS011;66600;48.378;9.948;2023-03-24T17:06:48;2.20;;;1.25;;
77495;SDS011;66600;48.378;9.948;2023-03-24T17:09:16;1.98;;;1.15;;
77495;SDS011;66600;48.378;9.948;2023-03-24T17:11:49;1.80;;;1.25;;
77495;SDS011;66600;48.378;9.948;2023-03-24T17:14:16;2.05;;;1.30;;
77495;SDS011;66600;48.378;9.948;2023-03-24T17:16:43;2.50;;;1.50;;
77495;SDS011;66600;48.378;9.948;2023-03-24T17:19:13;4.15;;;1.42;;
77495;SDS011;66600;48.378;9.948;2023-03-24T17:21:41;1.88;;;1.30;;
77495;SDS011;66600;48.378;9.948;2023-03-24T17:24:11;2.72;;;1.38;;
77495;SDS011;66600;48.378;9.948;2023-03-24T17:26:37;3.30;;;1.45;;
77495;SDS011;66600;48.378;9.948;2023-03-24T17:29:04;2.83;;;1.45;;
77495;SDS011;66600;48.378;9.948;2023-03-24T17:31:30;2.33;;;1.20;;
77495;SDS011;66600;48.378;9.948;2023-03-24T17:33:56;2.63;;;1.30;;